Minot Air Force Base
KMIB : now visible

Airfield :











YOU CAN JOIN US ON...

 
LOGIN :

Register | Disclaimer

   EN    FR    IT 

 









Legend :    VFR   Marginal VFR   IFR   Intensive IFR   Very Intensive IFR
Visi :
Ceiling :
>= 8 km
>= 3000ft
5 to 8 km
1000 to 3000 ft
1500m to 5 km
500 to 1000 ft
800 to 1500m
200 to 500 ft
< 800m
< 200 ft
Symbols :   Thunderstorms  Fog  Heavy snow  Heavy precipitations  Wind > 20 kt






- Airport Elevation : 1667 ft


KMIB - Minot Air Force Base

CURRENT METAR :
  • 210226Z AUTO 21027KT 2 1/2SM HZ CLR M10/M15 A2989 RMK AO2 VIS 2 1/4V2 3/4 PRESFR SLPNO $

EXPIRED METARs :
  • 210156Z AUTO 21024KT 10SM CLR M10/M16 A2992 RMK AO2 PK WND 20027/54 SLPNO T11041161 $
  • 210056Z AUTO 19017KT 10SM CLR M12/M17 A2997 RMK AO2 SLPNO T11161175 $
  • 202356Z AUTO 18017KT 10SM CLR M15/M20 A3001 RMK AO2 PRESFR SLPNO T11501196 11132 21161 57039 $

TAF AMD TAF KMIB
Valid from the 21 at 02:00 until the 22 at 07:00 UTC


210221Z 2102/2207 20020G30KT 8000 BLSN SCT030 510003 QNH2997INS
BECMG 2102/2103 20025G35KT 4800 BLSN BKN020 620304 520003 QNH2977INS
BECMG 2106/2107 20020G35KT 3200 BLSN OVC010 620105 510003 QNH2969INS
BECMG 2123/2200 30015G25KT 3200 BLSN BKN030 620303 QNH3022INS TX00/2115Z TNM14/2103Z
KZMP FIR / North America



MET'MAP, your aeronautical weather chart ! - Copyright ORBIFLY December 2007 - Disclaimer

ORBIFLY MET'MAP TEAM :

Programming & Development : Alexandra Zaïnal
Concept & original design : Baudouin d'Aumeries
Assistance for programming : Marc-Olivier Méhu
Technical & hardware support : Manuel Goepfert

Contact : metmap@orbifly.com




SOURCES & CREDITS :

   NOAA       Earth
Advisory